Time;durP1;ratioP1;P1;durP2;ratioP2;P2;SDS_P1;SDS_P2;PMS_P1;PMS_P2;Temp;Humidity;BMP_temperature;BMP_pressure;BME280_temperature;BME280_humidity;BME280_pressure;Samples;Min_cycle;Max_cycle;Signal;HPM_P1;HPM_P2
2022/10/04 00:09:13;;;;;;;13.40;6.00;;;8.80;99.90;;;;;;20836650;28;20041;-75
2022/10/04 00:19:13;;;;;;;13.75;5.70;;;8.90;99.90;;;;;;20838059;28;20069;-75
2022/10/04 00:29:33;;;;;;;10.83;6.10;;;8.80;99.90;;;;;;20835837;28;20048;-75
2022/10/04 00:39:34;;;;;;;21.77;6.13;;;8.80;99.90;;;;;;20834625;28;20412;-75
2022/10/04 00:49:40;;;;;;;13.60;6.63;;;8.70;99.90;;;;;;20834691;28;20121;-75
2022/10/04 00:59:45;;;;;;;12.73;6.20;;;8.60;99.90;;;;;;20833340;28;20048;-75
2022/10/04 01:09:55;;;;;;;10.07;5.72;;;8.50;99.90;;;;;;20832228;28;20037;-75
2022/10/04 01:19:56;;;;;;;8.35;5.53;;;8.20;99.90;;;;;;20813271;28;20045;-75
2022/10/04 01:29:57;;;;;;;16.50;4.65;;;8.20;99.90;;;;;;20829430;28;20132;-75
2022/10/04 01:39:58;;;;;;;8.73;4.72;;;7.70;99.90;;;;;;20830936;28;20489;-75
2022/10/04 01:50:05;;;;;;;7.83;4.17;;;7.60;99.90;;;;;;20812714;28;20049;-75
2022/10/04 02:00:09;;;;;;;7.57;4.10;;;7.70;99.90;;;;;;20827964;28;20311;-75
2022/10/04 02:10:15;;;;;;;8.13;4.70;;;7.90;99.90;;;;;;20827443;28;20117;-75
2022/10/04 02:20:22;;;;;;;10.32;4.00;;;7.80;99.90;;;;;;20826923;28;20531;-75
2022/10/04 02:30:23;;;;;;;10.20;4.07;;;7.80;99.90;;;;;;20826127;28;20136;-75
2022/10/04 02:40:38;;;;;;;5.45;3.42;;;7.70;99.90;;;;;;20825874;28;20042;-76
2022/10/04 02:50:44;;;;;;;7.15;3.97;;;7.70;99.90;;;;;;20825071;28;20038;-76
2022/10/04 03:00:51;;;;;;;8.30;4.43;;;7.60;99.90;;;;;;20825045;28;20389;-75
2022/10/04 03:10:52;;;;;;;6.18;3.75;;;7.10;99.90;;;;;;20824523;28;20500;-76
2022/10/04 03:20:52;;;;;;;24.17;8.40;;;7.10;99.90;;;;;;20826083;28;20129;-75
2022/10/04 03:30:54;;;;;;;7.77;4.83;;;7.30;99.90;;;;;;20824249;28;20096;-76
2022/10/04 03:40:58;;;;;;;12.25;4.78;;;8.20;99.90;;;;;;20825592;28;20507;-76
2022/10/04 03:51:01;;;;;;;7.13;4.20;;;8.70;99.90;;;;;;20812081;28;20045;-76
2022/10/04 04:01:19;;;;;;;12.73;4.45;;;8.50;99.90;;;;;;20916737;28;20528;-76
2022/10/04 04:11:29;;;;;;;4.82;3.60;;;7.80;99.90;;;;;;20906695;28;20045;-76
2022/10/04 04:21:31;;;;;;;11.18;3.97;;;7.50;99.90;;;;;;20906952;28;20098;-76
2022/10/04 04:31:43;;;;;;;8.80;4.70;;;7.00;99.90;;;;;;20922682;28;20525;-77
2022/10/04 04:41:44;;;;;;;7.53;4.30;;;6.60;99.90;;;;;;20907492;28;21140;-77
2022/10/04 04:51:50;;;;;;;7.78;3.67;;;6.80;99.90;;;;;;20862179;28;20048;-76
2022/10/04 05:01:51;;;;;;;11.90;4.30;;;6.50;99.90;;;;;;20876606;28;20491;-76
2022/10/04 05:11:54;;;;;;;;;;;6.50;99.90;;;;;;20846540;28;20422;-77
2022/10/04 05:21:58;;;;;;;5.95;3.55;;;6.50;99.90;;;;;;20822459;28;20008;-77
2022/10/04 05:32:37;;;;;;;8.95;4.03;;;6.40;99.90;;;;;;20859062;28;20451;-77
2022/10/04 05:42:45;;;;;;;8.18;4.45;;;6.40;99.90;;;;;;20881361;28;20043;-77
2022/10/04 05:52:50;;;;;;;10.27;5.30;;;6.70;99.90;;;;;;20828548;28;20401;-76
2022/10/04 06:02:56;;;;;;;12.98;5.53;;;6.70;99.90;;;;;;20850068;28;20499;-76
2022/10/04 06:13:05;;;;;;;12.18;5.85;;;6.70;99.90;;;;;;20884331;28;20070;-76
2022/10/04 06:23:15;;;;;;;17.33;6.72;;;7.10;99.90;;;;;;20742373;28;20038;-76
2022/10/04 06:33:54;;;;;;;11.68;5.32;;;7.60;99.90;;;;;;20868998;28;20041;-76
2022/10/04 06:44:17;;;;;;;7.30;5.03;;;8.10;99.90;;;;;;20895586;28;20037;-74
2022/10/04 06:54:19;;;;;;;12.35;4.90;;;8.30;99.90;;;;;;20890609;28;20399;-74
2022/10/04 07:04:36;;;;;;;12.60;6.03;;;8.40;99.90;;;;;;20833643;28;20543;-74
2022/10/04 07:14:44;;;;;;;10.60;6.40;;;8.50;99.90;;;;;;20825001;28;20113;-74
2022/10/04 07:25:01;;;;;;;12.52;5.80;;;8.70;99.90;;;;;;20831067;28;20096;-75
2022/10/04 07:35:15;;;;;;;18.15;6.03;;;9.30;99.90;;;;;;20848751;28;20044;-75
2022/10/04 07:45:32;;;;;;;13.15;5.80;;;9.10;99.90;;;;;;20838216;28;20041;-75
2022/10/04 07:55:51;;;;;;;10.07;5.50;;;9.40;99.90;;;;;;20864103;28;20232;-75
2022/10/04 08:06:09;;;;;;;11.63;5.55;;;9.90;99.90;;;;;;20856911;28;20025;-74
2022/10/04 08:16:42;;;;;;;11.32;6.07;;;10.00;99.90;;;;;;20875063;28;20047;-74
2022/10/04 08:27:01;;;;;;;13.10;5.32;;;10.20;99.90;;;;;;20880272;28;20056;-75
2022/10/04 08:37:36;;;;;;;7.88;4.38;;;11.40;99.90;;;;;;20906283;28;20032;-74
2022/10/04 08:48:02;;;;;;;7.95;4.05;;;11.80;99.90;;;;;;20915967;28;20050;-74
2022/10/04 08:58:29;;;;;;;11.63;4.53;;;12.10;99.90;;;;;;20897920;28;20041;-74
2022/10/04 09:08:54;;;;;;;8.70;3.65;;;13.10;99.90;;;;;;20879976;28;20138;-75
2022/10/04 09:19:21;;;;;;;8.63;3.67;;;14.00;99.90;;;;;;20877412;28;20539;-75
2022/10/04 09:29:44;;;;;;;8.93;3.90;;;14.30;99.90;;;;;;20902921;28;20132;-75
2022/10/04 09:39:53;;;;;;;7.68;3.58;;;14.80;99.90;;;;;;20868355;28;20127;-75
2022/10/04 09:50:39;;;;;;;10.90;3.72;;;15.00;99.90;;;;;;20831916;28;20030;-75
2022/10/04 10:01:07;;;;;;;7.03;3.83;;;15.70;99.90;;;;;;20829795;28;20048;-76
2022/10/04 10:22:16;;;;;;;10.00;4.60;;;16.70;99.90;;;;;;20811120;28;20132;-75
2022/10/04 10:32:40;;;;;;;9.60;3.53;;;17.20;99.90;;;;;;20819731;28;20053;-75
2022/10/04 10:43:22;;;;;;;7.03;4.40;;;18.00;99.90;;;;;;20827531;28;20045;-75
2022/10/04 10:54:05;;;;;;;7.87;3.30;;;19.00;99.90;;;;;;20828013;28;20049;-75
2022/10/04 11:04:24;;;;;;;;;;;19.60;99.90;;;;;;20843530;28;20151;-75
2022/10/04 11:14:46;;;;;;;6.47;3.03;;;19.60;99.90;;;;;;20825559;28;19916;-75
2022/10/04 11:25:24;;;;;;;5.47;3.00;;;20.70;99.90;;;;;;20843730;28;20049;-75
2022/10/04 11:35:55;;;;;;;8.70;3.38;;;20.90;99.90;;;;;;20844849;28;20408;-75
2022/10/04 11:46:07;;;;;;;7.68;3.30;;;20.00;99.90;;;;;;20842498;28;20038;-76
2022/10/04 11:56:26;;;;;;;6.00;3.40;;;20.50;99.90;;;;;;20839794;28;20092;-76
2022/10/04 12:06:43;;;;;;;6.15;2.58;;;20.20;99.90;;;;;;20878369;28;20057;-76
2022/10/04 12:17:02;;;;;;;4.93;3.05;;;20.50;99.90;;;;;;20904729;28;20071;-74
2022/10/04 12:27:23;;;;;;;4.60;2.95;;;20.90;99.90;;;;;;20912424;28;20096;-76
2022/10/04 12:37:33;;;;;;;4.47;3.05;;;21.40;99.90;;;;;;20836236;28;20084;-74
2022/10/04 12:48:00;;;;;;;5.32;2.67;;;22.00;99.90;;;;;;20835263;28;20042;-74
2022/10/04 12:58:09;;;;;;;6.63;3.30;;;21.80;99.90;;;;;;20864984;28;20535;-74
2022/10/04 13:08:41;;;;;;;7.25;2.92;;;19.90;99.90;;;;;;20832570;28;20034;-75
2022/10/04 13:19:04;;;;;;;11.73;2.50;;;21.90;99.90;;;;;;20749593;28;20069;-75
2022/10/04 13:29:05;;;;;;;6.00;3.63;;;22.20;99.90;;;;;;20768391;28;20128;-76
2022/10/04 13:39:14;;;;;;;;;;;21.30;99.90;;;;;;20886109;28;20041;-76
2022/10/04 13:49:21;;;;;;;6.72;2.78;;;22.10;99.90;;;;;;20909943;28;19932;-76
2022/10/04 14:00:24;;;;;;;7.32;2.88;;;22.10;99.90;;;;;;20841011;28;20095;-76
2022/10/04 14:10:49;;;;;;;11.27;2.60;;;21.60;99.90;;;;;;20768206;28;20050;-76
2022/10/04 14:21:11;;;;;;;6.78;2.95;;;21.60;99.90;;;;;;20880377;28;20462;-76
2022/10/04 14:31:27;;;;;;;6.18;2.78;;;21.90;99.90;;;;;;20883130;28;20065;-75
2022/10/04 14:42:10;;;;;;;5.38;2.83;;;21.20;99.90;;;;;;20874999;28;20549;-76
2022/10/04 14:52:32;;;;;;;4.82;2.83;;;21.80;99.90;;;;;;20842693;28;20127;-75
2022/10/04 15:02:44;;;;;;;4.95;2.35;;;21.40;99.90;;;;;;20887523;28;20069;-74
2022/10/04 15:13:14;;;;;;;5.50;2.70;;;20.90;99.90;;;;;;20906612;28;20041;-75
2022/10/04 15:23:28;;;;;;;5.60;2.63;;;21.10;99.90;;;;;;20876976;28;20103;-75
2022/10/04 15:34:00;;;;;;;5.45;2.60;;;21.00;99.90;;;;;;20823571;28;20037;-75
2022/10/04 15:44:11;;;;;;;4.30;2.55;;;20.60;99.90;;;;;;20828599;28;20400;-77
2022/10/04 15:54:40;;;;;;;3.85;2.75;;;19.70;99.90;;;;;;20876076;28;20048;-76
2022/10/04 16:04:56;;;;;;;6.75;2.90;;;18.80;99.90;;;;;;20900156;28;20037;-76
2022/10/04 16:15:20;;;;;;;8.05;2.60;;;18.20;99.90;;;;;;20932947;28;20439;-76
2022/10/04 16:25:26;;;;;;;3.85;2.80;;;17.80;99.90;;;;;;20935097;28;20045;-76
2022/10/04 16:35:42;;;;;;;6.05;2.90;;;17.40;99.90;;;;;;20869930;28;20122;-75
2022/10/04 16:46:14;;;;;;;4.90;2.65;;;16.60;99.90;;;;;;20921079;28;20064;-75
2022/10/04 16:56:24;;;;;;;4.50;3.50;;;15.70;99.90;;;;;;20916541;28;20120;-75
2022/10/04 17:06:31;;;;;;;6.07;3.30;;;15.20;99.90;;;;;;20916459;28;20041;-76
2022/10/04 17:16:38;;;;;;;7.43;3.03;;;15.00;99.90;;;;;;20899558;28;20091;-75
2022/10/04 17:26:51;;;;;;;6.35;2.95;;;14.60;99.90;;;;;;20874530;28;20511;-74
2022/10/04 17:37:36;;;;;;;9.35;3.50;;;14.60;99.90;;;;;;20861333;28;20036;-74
2022/10/04 17:58:38;;;;;;;7.95;3.13;;;14.10;99.90;;;;;;20916545;28;20045;-75
2022/10/04 18:09:02;;;;;;;5.72;3.67;;;13.40;99.90;;;;;;20744731;28;20092;-76
2022/10/04 18:19:53;;;;;;;6.22;2.95;;;13.60;99.90;;;;;;20744760;28;20065;-76
2022/10/04 18:29:59;;;;;;;6.40;3.70;;;13.50;99.90;;;;;;20793546;28;20083;-75
2022/10/04 18:40:21;;;;;;;6.50;3.50;;;13.00;99.90;;;;;;20830762;28;20096;-75
2022/10/04 18:50:30;;;;;;;6.43;3.97;;;12.70;99.90;;;;;;20829627;28;20091;-76
2022/10/04 19:11:08;;;;;;;9.93;4.53;;;12.20;99.90;;;;;;20829787;28;20523;-75
2022/10/04 19:21:36;;;;;;;10.83;5.03;;;12.10;99.90;;;;;;20832642;28;20046;-75
2022/10/04 19:31:57;;;;;;;7.28;4.32;;;12.00;99.90;;;;;;20842429;28;20037;-75
2022/10/04 19:42:12;;;;;;;8.88;4.25;;;11.90;99.90;;;;;;20844550;28;20091;-75
2022/10/04 19:52:43;;;;;;;8.00;4.07;;;11.90;99.90;;;;;;20896317;28;20053;-75
2022/10/04 20:02:44;;;;;;;12.38;4.65;;;11.90;99.90;;;;;;20921343;28;20041;-76
2022/10/04 20:13:11;;;;;;;10.97;4.93;;;12.00;99.90;;;;;;20925883;28;20068;-75
2022/10/04 20:23:40;;;;;;;8.55;4.63;;;11.80;99.90;;;;;;20925711;28;20076;-76
2022/10/04 20:33:41;;;;;;;9.32;4.78;;;11.60;99.90;;;;;;20842544;28;20048;-76
2022/10/04 20:44:02;;;;;;;8.87;4.70;;;11.70;99.90;;;;;;20892372;28;20037;-75
2022/10/04 20:54:05;;;;;;;9.43;4.40;;;11.60;99.90;;;;;;20832791;28;20037;-75
2022/10/04 21:04:18;;;;;;;6.95;4.20;;;11.40;99.90;;;;;;20870486;28;20036;-75
2022/10/04 21:14:24;;;;;;;7.35;5.00;;;11.30;99.90;;;;;;20874054;28;20052;-76
2022/10/04 21:24:51;;;;;;;7.72;4.97;;;11.20;99.90;;;;;;20880482;28;20042;-75
2022/10/04 21:34:52;;;;;;;8.07;4.13;;;11.20;99.90;;;;;;20872173;28;20042;-75
2022/10/04 21:44:53;;;;;;;8.83;4.53;;;11.10;99.90;;;;;;20876635;28;20040;-75
2022/10/04 21:54:54;;;;;;;12.97;4.77;;;11.00;99.90;;;;;;20879963;28;20048;-75
2022/10/04 22:04:55;;;;;;;13.30;4.70;;;10.90;99.90;;;;;;20873160;28;20124;-75
2022/10/04 22:14:55;;;;;;;9.53;4.53;;;10.80;99.90;;;;;;20871580;28;20079;-76
2022/10/04 22:24:57;;;;;;;8.37;4.87;;;10.60;99.90;;;;;;20872979;28;20033;-76
2022/10/04 22:35:12;;;;;;;11.63;6.30;;;10.60;99.90;;;;;;20861678;28;20037;-76
2022/10/04 22:45:28;;;;;;;8.75;5.47;;;10.60;99.90;;;;;;20868816;28;20041;-76
2022/10/04 22:55:29;;;;;;;7.57;5.13;;;10.70;99.90;;;;;;20844634;28;20087;-76
2022/10/04 23:05:30;;;;;;;9.23;4.87;;;10.60;99.90;;;;;;20831294;28;20456;-76
2022/10/04 23:15:30;;;;;;;10.43;5.03;;;10.50;99.90;;;;;;20832022;28;20041;-76
2022/10/04 23:25:32;;;;;;;9.37;4.90;;;10.30;99.90;;;;;;20828625;28;20111;-76
2022/10/04 23:35:33;;;;;;;8.52;5.68;;;10.00;99.90;;;;;;20809902;28;20528;-76
2022/10/04 23:45:40;;;;;;;12.67;5.57;;;10.10;99.90;;;;;;20826409;28;20060;-76
2022/10/04 23:55:43;;;;;;;8.95;5.03;;;10.10;99.90;;;;;;20909188;28;20045;-76
